sensor_id;sensor_type;location;lat;lon;timestamp;pressure;altitude;pressure_sealevel;temperature;humidity
20115;BME280;10218;42.874;25.320;2023-09-19T00:00:38;97519.00;;;15.87;100.00
20115;BME280;10218;42.874;25.320;2023-09-19T00:03:09;97523.47;;;15.73;100.00
20115;BME280;10218;42.874;25.320;2023-09-19T00:05:37;97518.69;;;15.75;100.00
20115;BME280;10218;42.874;25.320;2023-09-19T00:08:11;97515.56;;;15.72;100.00
20115;BME280;10218;42.874;25.320;2023-09-19T00:10:40;97521.63;;;15.80;100.00
20115;BME280;10218;42.874;25.320;2023-09-19T00:13:09;97516.56;;;15.64;100.00
20115;BME280;10218;42.874;25.320;2023-09-19T00:15:42;97511.03;;;15.72;100.00
20115;BME280;10218;42.874;25.320;2023-09-19T00:18:09;97503.81;;;15.52;100.00
20115;BME280;10218;42.874;25.320;2023-09-19T00:20:37;97514.88;;;15.42;100.00
20115;BME280;10218;42.874;25.320;2023-09-19T00:23:05;97515.31;;;15.46;100.00
20115;BME280;10218;42.874;25.320;2023-09-19T00:25:36;97512.44;;;15.47;100.00
20115;BME280;10218;42.874;25.320;2023-09-19T00:28:04;97513.75;;;15.51;100.00
20115;BME280;10218;42.874;25.320;2023-09-19T00:30:34;97508.47;;;15.43;100.00
20115;BME280;10218;42.874;25.320;2023-09-19T00:33:02;97522.91;;;15.14;100.00
20115;BME280;10218;42.874;25.320;2023-09-19T00:35:33;97511.34;;;14.99;100.00
20115;BME280;10218;42.874;25.320;2023-09-19T00:38:00;97522.00;;;14.86;100.00
20115;BME280;10218;42.874;25.320;2023-09-19T00:40:27;97515.84;;;14.56;100.00
20115;BME280;10218;42.874;25.320;2023-09-19T00:42:57;97521.16;;;14.85;100.00
20115;BME280;10218;42.874;25.320;2023-09-19T00:45:28;97504.75;;;14.80;100.00
20115;BME280;10218;42.874;25.320;2023-09-19T00:47:56;97513.69;;;14.66;100.00
20115;BME280;10218;42.874;25.320;2023-09-19T00:50:25;97514.75;;;14.50;100.00
20115;BME280;10218;42.874;25.320;2023-09-19T00:52:55;97513.69;;;14.66;100.00
20115;BME280;10218;42.874;25.320;2023-09-19T00:55:25;97506.13;;;14.55;100.00
20115;BME280;10218;42.874;25.320;2023-09-19T00:57:55;97515.13;;;14.83;100.00
20115;BME280;10218;42.874;25.320;2023-09-19T01:00:23;97508.41;;;14.73;100.00
20115;BME280;10218;42.874;25.320;2023-09-19T01:02:51;97516.66;;;14.71;100.00
20115;BME280;10218;42.874;25.320;2023-09-19T01:05:18;97518.38;;;14.79;100.00
20115;BME280;10218;42.874;25.320;2023-09-19T01:07:46;97515.91;;;14.77;100.00
20115;BME280;10218;42.874;25.320;2023-09-19T01:10:18;97505.97;;;14.78;100.00
20115;BME280;10218;42.874;25.320;2023-09-19T01:13:01;97514.00;;;14.92;100.00
20115;BME280;10218;42.874;25.320;2023-09-19T01:16:16;97510.84;;;14.89;100.00
20115;BME280;10218;42.874;25.320;2023-09-19T01:19:01;97509.63;;;14.91;100.00
20115;BME280;10218;42.874;25.320;2023-09-19T01:30:24;97505.16;;;14.77;100.00
20115;BME280;10218;42.874;25.320;2023-09-19T01:32:55;97494.37;;;14.77;100.00
20115;BME280;10218;42.874;25.320;2023-09-19T01:35:22;97502.75;;;14.53;100.00
20115;BME280;10218;42.874;25.320;2023-09-19T01:37:49;97498.16;;;14.32;100.00
20115;BME280;10218;42.874;25.320;2023-09-19T01:40:18;97494.16;;;14.28;100.00
20115;BME280;10218;42.874;25.320;2023-09-19T01:42:54;97486.50;;;14.40;100.00
20115;BME280;10218;42.874;25.320;2023-09-19T01:45:35;97486.19;;;14.49;100.00
20115;BME280;10218;42.874;25.320;2023-09-19T01:48:19;97479.09;;;14.63;100.00
20115;BME280;10218;42.874;25.320;2023-09-19T01:51:00;97475.53;;;14.56;100.00
20115;BME280;10218;42.874;25.320;2023-09-19T01:54:00;97474.81;;;14.47;100.00
20115;BME280;10218;42.874;25.320;2023-09-19T01:56:40;97468.59;;;14.47;100.00
20115;BME280;10218;42.874;25.320;2023-09-19T01:59:13;97487.88;;;14.50;100.00
20115;BME280;10218;42.874;25.320;2023-09-19T02:01:42;97485.44;;;14.55;100.00
20115;BME280;10218;42.874;25.320;2023-09-19T02:04:12;97483.69;;;14.48;100.00
20115;BME280;10218;42.874;25.320;2023-09-19T02:06:42;97475.12;;;14.59;100.00
20115;BME280;10218;42.874;25.320;2023-09-19T02:09:09;97484.28;;;14.65;100.00
20115;BME280;10218;42.874;25.320;2023-09-19T02:11:36;97473.38;;;14.66;100.00
20115;BME280;10218;42.874;25.320;2023-09-19T02:14:03;97473.81;;;14.70;100.00
20115;BME280;10218;42.874;25.320;2023-09-19T02:16:32;97471.19;;;14.76;100.00
20115;BME280;10218;42.874;25.320;2023-09-19T02:18:59;97473.69;;;14.78;100.00
20115;BME280;10218;42.874;25.320;2023-09-19T02:21:26;97469.59;;;14.82;100.00
20115;BME280;10218;42.874;25.320;2023-09-19T02:23:58;97474.72;;;14.77;100.00
20115;BME280;10218;42.874;25.320;2023-09-19T02:26:25;97472.78;;;14.71;100.00
20115;BME280;10218;42.874;25.320;2023-09-19T02:28:54;97471.56;;;14.73;100.00
20115;BME280;10218;42.874;25.320;2023-09-19T02:31:21;97472.59;;;14.72;100.00
20115;BME280;10218;42.874;25.320;2023-09-19T02:33:48;97456.66;;;14.71;100.00
20115;BME280;10218;42.874;25.320;2023-09-19T02:36:15;97460.63;;;14.75;100.00
20115;BME280;10218;42.874;25.320;2023-09-19T02:38:44;97463.53;;;14.59;100.00
20115;BME280;10218;42.874;25.320;2023-09-19T02:41:11;97463.03;;;14.70;100.00
20115;BME280;10218;42.874;25.320;2023-09-19T02:43:38;97465.38;;;14.73;100.00
20115;BME280;10218;42.874;25.320;2023-09-19T02:46:06;97463.81;;;14.64;100.00
20115;BME280;10218;42.874;25.320;2023-09-19T02:48:33;97458.41;;;14.42;100.00
20115;BME280;10218;42.874;25.320;2023-09-19T02:51:02;97470.00;;;13.84;100.00
20115;BME280;10218;42.874;25.320;2023-09-19T02:53:32;97475.28;;;13.92;100.00
20115;BME280;10218;42.874;25.320;2023-09-19T02:55:59;97475.09;;;13.64;100.00
20115;BME280;10218;42.874;25.320;2023-09-19T02:58:26;97469.34;;;13.67;100.00
20115;BME280;10218;42.874;25.320;2023-09-19T03:00:55;97475.44;;;13.61;100.00
20115;BME280;10218;42.874;25.320;2023-09-19T03:03:23;97482.12;;;13.51;100.00
20115;BME280;10218;42.874;25.320;2023-09-19T03:05:50;97470.97;;;13.39;100.00
20115;BME280;10218;42.874;25.320;2023-09-19T03:08:19;97472.31;;;13.73;100.00
20115;BME280;10218;42.874;25.320;2023-09-19T03:10:46;97476.78;;;13.28;100.00
20115;BME280;10218;42.874;25.320;2023-09-19T03:13:14;97470.97;;;13.24;100.00
20115;BME280;10218;42.874;25.320;2023-09-19T03:15:42;97470.97;;;13.24;100.00
20115;BME280;10218;42.874;25.320;2023-09-19T03:18:17;97465.59;;;13.24;100.00
20115;BME280;10218;42.874;25.320;2023-09-19T03:20:53;97461.91;;;13.25;100.00
20115;BME280;10218;42.874;25.320;2023-09-19T03:23:22;97466.25;;;13.04;100.00
20115;BME280;10218;42.874;25.320;2023-09-19T03:25:50;97475.47;;;13.24;100.00
20115;BME280;10218;42.874;25.320;2023-09-19T03:28:19;97481.50;;;13.26;100.00
20115;BME280;10218;42.874;25.320;2023-09-19T03:30:58;97474.38;;;13.33;100.00
20115;BME280;10218;42.874;25.320;2023-09-19T03:33:27;97491.75;;;13.22;100.00
20115;BME280;10218;42.874;25.320;2023-09-19T03:35:54;97490.66;;;13.32;100.00
20115;BME280;10218;42.874;25.320;2023-09-19T03:38:22;97489.03;;;13.31;100.00
20115;BME280;10218;42.874;25.320;2023-09-19T03:40:49;97494.22;;;13.47;100.00
20115;BME280;10218;42.874;25.320;2023-09-19T03:43:16;97493.03;;;13.49;100.00
20115;BME280;10218;42.874;25.320;2023-09-19T03:45:44;97497.22;;;13.06;100.00
20115;BME280;10218;42.874;25.320;2023-09-19T03:48:12;97497.12;;;13.22;100.00
20115;BME280;10218;42.874;25.320;2023-09-19T03:50:40;97493.91;;;13.04;100.00
20115;BME280;10218;42.874;25.320;2023-09-19T03:53:07;97498.28;;;12.97;100.00
20115;BME280;10218;42.874;25.320;2023-09-19T03:55:34;97499.31;;;12.96;100.00
20115;BME280;10218;42.874;25.320;2023-09-19T03:58:05;97494.81;;;13.19;100.00
20115;BME280;10218;42.874;25.320;2023-09-19T04:00:32;97493.63;;;13.37;100.00
20115;BME280;10218;42.874;25.320;2023-09-19T04:03:04;97496.28;;;12.99;100.00
20115;BME280;10218;42.874;25.320;2023-09-19T04:05:33;97474.22;;;13.12;100.00
20115;BME280;10218;42.874;25.320;2023-09-19T04:08:00;97496.19;;;13.15;100.00
20115;BME280;10218;42.874;25.320;2023-09-19T04:10:28;97489.75;;;13.24;100.00
20115;BME280;10218;42.874;25.320;2023-09-19T04:12:56;97494.84;;;13.34;100.00
20115;BME280;10218;42.874;25.320;2023-09-19T04:15:23;97491.63;;;13.16;100.00
20115;BME280;10218;42.874;25.320;2023-09-19T04:17:52;97486.03;;;13.25;100.00
20115;BME280;10218;42.874;25.320;2023-09-19T04:20:19;97492.84;;;13.51;100.00
20115;BME280;10218;42.874;25.320;2023-09-19T04:22:47;97494.72;;;13.65;100.00
20115;BME280;10218;42.874;25.320;2023-09-19T04:25:14;97474.41;;;13.48;100.00
20115;BME280;10218;42.874;25.320;2023-09-19T04:27:41;97485.19;;;13.77;100.00
20115;BME280;10218;42.874;25.320;2023-09-19T04:30:08;97482.44;;;13.85;100.00
20115;BME280;10218;42.874;25.320;2023-09-19T04:32:38;97491.13;;;13.87;100.00
20115;BME280;10218;42.874;25.320;2023-09-19T04:35:10;97485.28;;;13.69;100.00
20115;BME280;10218;42.874;25.320;2023-09-19T04:37:38;97479.63;;;13.93;100.00
20115;BME280;10218;42.874;25.320;2023-09-19T04:40:08;97475.09;;;13.94;100.00
20115;BME280;10218;42.874;25.320;2023-09-19T04:42:53;97475.47;;;14.05;100.00
20115;BME280;10218;42.874;25.320;2023-09-19T04:45:26;97480.28;;;13.95;100.00
20115;BME280;10218;42.874;25.320;2023-09-19T04:47:54;97475.75;;;14.10;100.00
20115;BME280;10218;42.874;25.320;2023-09-19T04:50:22;97488.16;;;14.11;100.00
20115;BME280;10218;42.874;25.320;2023-09-19T04:52:50;97483.34;;;14.07;100.00
20115;BME280;10218;42.874;25.320;2023-09-19T04:55:18;97487.41;;;14.03;100.00
20115;BME280;10218;42.874;25.320;2023-09-19T04:57:50;97487.41;;;13.88;100.00
20115;BME280;10218;42.874;25.320;2023-09-19T05:00:19;97487.06;;;13.91;100.00
20115;BME280;10218;42.874;25.320;2023-09-19T05:02:51;97481.22;;;14.02;100.00
20115;BME280;10218;42.874;25.320;2023-09-19T05:05:22;97483.22;;;14.30;100.00
20115;BME280;10218;42.874;25.320;2023-09-19T05:07:50;97481.94;;;14.40;100.00
20115;BME280;10218;42.874;25.320;2023-09-19T05:10:18;97474.38;;;14.65;100.00
20115;BME280;10218;42.874;25.320;2023-09-19T05:12:46;97467.50;;;14.77;100.00
20115;BME280;10218;42.874;25.320;2023-09-19T05:15:14;97461.47;;;14.75;100.00
20115;BME280;10218;42.874;25.320;2023-09-19T05:17:50;97453.25;;;15.05;100.00
20115;BME280;10218;42.874;25.320;2023-09-19T05:20:21;97448.72;;;15.05;100.00
20115;BME280;10218;42.874;25.320;2023-09-19T05:23:03;97465.16;;;15.38;100.00
20115;BME280;10218;42.874;25.320;2023-09-19T05:25:33;97451.12;;;15.49;100.00
20115;BME280;10218;42.874;25.320;2023-09-19T05:28:05;97457.31;;;15.43;100.00
20115;BME280;10218;42.874;25.320;2023-09-19T05:30:33;97454.75;;;15.91;100.00
20115;BME280;10218;42.874;25.320;2023-09-19T05:33:03;97460.75;;;15.86;100.00
20115;BME280;10218;42.874;25.320;2023-09-19T05:35:31;97459.03;;;16.13;100.00
20115;BME280;10218;42.874;25.320;2023-09-19T05:37:59;97451.50;;;16.02;100.00
20115;BME280;10218;42.874;25.320;2023-09-19T05:40:27;97451.75;;;16.07;100.00
20115;BME280;10218;42.874;25.320;2023-09-19T05:42:54;97431.53;;;16.24;100.00
20115;BME280;10218;42.874;25.320;2023-09-19T05:45:21;97440.22;;;16.74;100.00
20115;BME280;10218;42.874;25.320;2023-09-19T05:47:52;97447.25;;;16.68;100.00
20115;BME280;10218;42.874;25.320;2023-09-19T05:50:28;97444.59;;;16.88;100.00
20115;BME280;10218;42.874;25.320;2023-09-19T05:52:55;97433.19;;;16.86;100.00
20115;BME280;10218;42.874;25.320;2023-09-19T05:55:25;97445.47;;;17.08;100.00
20115;BME280;10218;42.874;25.320;2023-09-19T05:57:52;97446.94;;;17.50;100.00
20115;BME280;10218;42.874;25.320;2023-09-19T06:00:20;97441.53;;;17.70;100.00
20115;BME280;10218;42.874;25.320;2023-09-19T06:02:52;97439.31;;;18.24;100.00
20115;BME280;10218;42.874;25.320;2023-09-19T06:05:20;97439.37;;;18.69;100.00
20115;BME280;10218;42.874;25.320;2023-09-19T06:07:47;97440.03;;;18.58;100.00
20115;BME280;10218;42.874;25.320;2023-09-19T06:10:16;97427.31;;;18.96;100.00
20115;BME280;10218;42.874;25.320;2023-09-19T06:12:44;97436.84;;;18.74;100.00
20115;BME280;10218;42.874;25.320;2023-09-19T06:15:13;97431.84;;;18.71;100.00
20115;BME280;10218;42.874;25.320;2023-09-19T06:17:49;97429.81;;;18.98;100.00
20115;BME280;10218;42.874;25.320;2023-09-19T06:20:17;97432.56;;;18.91;100.00
20115;BME280;10218;42.874;25.320;2023-09-19T06:22:45;97432.72;;;19.28;100.00
20115;BME280;10218;42.874;25.320;2023-09-19T06:25:14;97430.47;;;19.74;100.00
20115;BME280;10218;42.874;25.320;2023-09-19T06:27:49;97432.59;;;19.47;100.00
20115;BME280;10218;42.874;25.320;2023-09-19T06:30:20;97429.28;;;19.88;100.00
20115;BME280;10218;42.874;25.320;2023-09-19T06:32:48;97420.41;;;20.18;100.00
20115;BME280;10218;42.874;25.320;2023-09-19T06:35:16;97432.09;;;20.00;100.00
20115;BME280;10218;42.874;25.320;2023-09-19T06:37:43;97428.78;;;20.16;100.00
20115;BME280;10218;42.874;25.320;2023-09-19T06:40:14;97432.91;;;20.37;100.00
20115;BME280;10218;42.874;25.320;2023-09-19T06:42:45;97431.19;;;20.61;100.00
20115;BME280;10218;42.874;25.320;2023-09-19T06:45:13;97430.34;;;20.60;100.00
20115;BME280;10218;42.874;25.320;2023-09-19T06:47:45;97428.16;;;21.10;100.00
20115;BME280;10218;42.874;25.320;2023-09-19T06:50:13;97419.47;;;21.20;100.00
20115;BME280;10218;42.874;25.320;2023-09-19T06:52:41;97425.75;;;21.20;100.00
20115;BME280;10218;42.874;25.320;2023-09-19T06:55:09;97422.13;;;21.38;100.00
20115;BME280;10218;42.874;25.320;2023-09-19T06:57:40;97429.22;;;21.86;100.00
20115;BME280;10218;42.874;25.320;2023-09-19T07:00:08;97431.94;;;22.21;100.00
20115;BME280;10218;42.874;25.320;2023-09-19T07:02:42;97419.06;;;21.93;100.00
20115;BME280;10218;42.874;25.320;2023-09-19T07:05:09;97420.53;;;22.47;100.00
20115;BME280;10218;42.874;25.320;2023-09-19T07:07:36;97422.69;;;22.45;100.00
20115;BME280;10218;42.874;25.320;2023-09-19T07:10:04;97410.88;;;22.28;100.00
20115;BME280;10218;42.874;25.320;2023-09-19T07:12:37;97410.25;;;23.22;100.00
20115;BME280;10218;42.874;25.320;2023-09-19T07:15:05;97405.62;;;23.23;100.00
20115;BME280;10218;42.874;25.320;2023-09-19T07:17:32;97413.00;;;23.06;100.00
20115;BME280;10218;42.874;25.320;2023-09-19T07:20:00;97414.84;;;22.88;100.00
20115;BME280;10218;42.874;25.320;2023-09-19T07:22:27;97418.78;;;23.42;100.00
20115;BME280;10218;42.874;25.320;2023-09-19T07:24:54;97416.34;;;23.74;100.00
20115;BME280;10218;42.874;25.320;2023-09-19T07:27:21;97408.06;;;24.08;100.00
20115;BME280;10218;42.874;25.320;2023-09-19T07:29:48;97404.97;;;24.38;100.00
20115;BME280;10218;42.874;25.320;2023-09-19T07:32:16;97406.59;;;24.39;100.00
20115;BME280;10218;42.874;25.320;2023-09-19T07:34:44;97401.84;;;24.51;100.00
20115;BME280;10218;42.874;25.320;2023-09-19T07:37:11;97398.41;;;24.39;99.49
20115;BME280;10218;42.874;25.320;2023-09-19T07:39:40;97385.69;;;24.71;99.59
20115;BME280;10218;42.874;25.320;2023-09-19T07:42:08;97389.97;;;24.62;100.00
20115;BME280;10218;42.874;25.320;2023-09-19T07:44:35;97391.75;;;24.73;100.00
20115;BME280;10218;42.874;25.320;2023-09-19T07:47:03;97386.13;;;24.36;100.00
20115;BME280;10218;42.874;25.320;2023-09-19T07:49:30;97386.28;;;24.73;98.27
20115;BME280;10218;42.874;25.320;2023-09-19T07:51:57;97379.87;;;24.62;98.75
20115;BME280;10218;42.874;25.320;2023-09-19T07:54:25;97379.16;;;24.94;88.89
20115;BME280;10218;42.874;25.320;2023-09-19T07:56:53;97374.19;;;24.91;93.13
20115;BME280;10218;42.874;25.320;2023-09-19T07:59:21;97372.69;;;25.05;92.25
20115;BME280;10218;42.874;25.320;2023-09-19T08:01:48;97370.22;;;25.03;86.54
20115;BME280;10218;42.874;25.320;2023-09-19T08:04:16;97367.72;;;25.66;71.06
20115;BME280;10218;42.874;25.320;2023-09-19T08:06:43;97365.59;;;25.41;73.02
20115;BME280;10218;42.874;25.320;2023-09-19T08:09:11;97353.22;;;24.48;75.93
20115;BME280;10218;42.874;25.320;2023-09-19T08:11:41;97361.59;;;25.17;70.15
20115;BME280;10218;42.874;25.320;2023-09-19T08:14:08;97354.56;;;26.00;76.50
20115;BME280;10218;42.874;25.320;2023-09-19T08:16:35;97348.69;;;25.81;71.41
20115;BME280;10218;42.874;25.320;2023-09-19T08:19:02;97357.34;;;26.10;66.80
20115;BME280;10218;42.874;25.320;2023-09-19T08:21:29;97359.06;;;27.03;58.24
20115;BME280;10218;42.874;25.320;2023-09-19T08:23:56;97357.00;;;26.53;59.28
20115;BME280;10218;42.874;25.320;2023-09-19T08:26:24;97351.34;;;26.18;69.37
20115;BME280;10218;42.874;25.320;2023-09-19T08:28:54;97358.19;;;26.88;60.85
20115;BME280;10218;42.874;25.320;2023-09-19T08:31:22;97360.31;;;26.55;56.32
20115;BME280;10218;42.874;25.320;2023-09-19T08:33:50;97348.34;;;26.87;56.09
20115;BME280;10218;42.874;25.320;2023-09-19T08:36:18;97340.34;;;26.70;58.36
20115;BME280;10218;42.874;25.320;2023-09-19T08:38:45;97340.72;;;27.59;58.04
20115;BME280;10218;42.874;25.320;2023-09-19T08:41:12;97341.16;;;26.70;61.10
20115;BME280;10218;42.874;25.320;2023-09-19T08:43:39;97331.94;;;27.12;58.87
20115;BME280;10218;42.874;25.320;2023-09-19T08:46:10;97328.59;;;26.90;60.58
20115;BME280;10218;42.874;25.320;2023-09-19T08:48:45;97329.72;;;27.14;65.84
20115;BME280;10218;42.874;25.320;2023-09-19T08:51:21;97340.03;;;26.56;60.50
20115;BME280;10218;42.874;25.320;2023-09-19T08:54:09;97327.25;;;27.43;59.68
20115;BME280;10218;42.874;25.320;2023-09-19T08:56:41;97321.94;;;28.02;54.29
20115;BME280;10218;42.874;25.320;2023-09-19T08:59:10;97320.97;;;27.32;55.62
20115;BME280;10218;42.874;25.320;2023-09-19T09:01:39;97319.47;;;26.54;60.03
20115;BME280;10218;42.874;25.320;2023-09-19T09:04:09;97316.22;;;26.82;61.45
20115;BME280;10218;42.874;25.320;2023-09-19T09:06:42;97317.66;;;27.60;60.37
20115;BME280;10218;42.874;25.320;2023-09-19T09:09:11;97327.41;;;26.50;65.30
20115;BME280;10218;42.874;25.320;2023-09-19T09:11:39;97312.66;;;27.88;61.51
20115;BME280;10218;42.874;25.320;2023-09-19T09:14:07;97317.72;;;28.35;55.10
20115;BME280;10218;42.874;25.320;2023-09-19T09:16:34;97308.31;;;27.61;58.84
20115;BME280;10218;42.874;25.320;2023-09-19T09:19:01;97308.00;;;27.88;62.21
20115;BME280;10218;42.874;25.320;2023-09-19T09:21:29;97316.69;;;28.21;56.46
20115;BME280;10218;42.874;25.320;2023-09-19T09:23:56;97317.59;;;26.85;55.89
20115;BME280;10218;42.874;25.320;2023-09-19T09:26:56;97308.28;;;26.75;57.97
20115;BME280;10218;42.874;25.320;2023-09-19T09:29:47;97313.19;;;26.78;55.22
20115;BME280;10218;42.874;25.320;2023-09-19T09:32:17;97312.44;;;26.06;62.08
20115;BME280;10218;42.874;25.320;2023-09-19T09:34:50;97311.84;;;26.76;57.28
20115;BME280;10218;42.874;25.320;2023-09-19T09:37:18;97303.31;;;26.77;50.30
20115;BME280;10218;42.874;25.320;2023-09-19T09:39:52;97294.47;;;28.07;47.32
20115;BME280;10218;42.874;25.320;2023-09-19T09:42:32;97301.72;;;27.73;46.93
20115;BME280;10218;42.874;25.320;2023-09-19T09:45:21;97298.28;;;29.14;44.75
20115;BME280;10218;42.874;25.320;2023-09-19T09:48:01;97303.84;;;28.60;44.97
20115;BME280;10218;42.874;25.320;2023-09-19T09:50:33;97302.16;;;28.69;47.00
20115;BME280;10218;42.874;25.320;2023-09-19T09:53:22;97297.72;;;29.12;43.39
20115;BME280;10218;42.874;25.320;2023-09-19T09:56:07;97298.78;;;28.33;43.05
20115;BME280;10218;42.874;25.320;2023-09-19T09:58:37;97299.94;;;28.17;44.33
20115;BME280;10218;42.874;25.320;2023-09-19T10:01:07;97307.78;;;27.49;40.41
20115;BME280;10218;42.874;25.320;2023-09-19T10:03:42;97307.03;;;28.28;38.69
20115;BME280;10218;42.874;25.320;2023-09-19T10:06:18;97301.66;;;29.01;37.95
20115;BME280;10218;42.874;25.320;2023-09-19T10:09:06;97297.09;;;28.42;40.38
20115;BME280;10218;42.874;25.320;2023-09-19T10:12:16;97293.00;;;29.81;42.20
20115;BME280;10218;42.874;25.320;2023-09-19T10:14:45;97297.38;;;30.53;36.47
20115;BME280;10218;42.874;25.320;2023-09-19T10:17:17;97294.47;;;31.19;37.49
20115;BME280;10218;42.874;25.320;2023-09-19T10:19:55;97288.56;;;29.22;38.61
20115;BME280;10218;42.874;25.320;2023-09-19T10:22:26;97281.28;;;30.97;38.40
20115;BME280;10218;42.874;25.320;2023-09-19T10:24:55;97283.88;;;30.09;39.91
20115;BME280;10218;42.874;25.320;2023-09-19T10:27:29;97285.16;;;30.59;38.47
20115;BME280;10218;42.874;25.320;2023-09-19T10:29:56;97284.41;;;30.11;38.09
20115;BME280;10218;42.874;25.320;2023-09-19T10:32:28;97280.78;;;30.77;36.71
20115;BME280;10218;42.874;25.320;2023-09-19T10:35:01;97280.44;;;32.49;38.81
20115;BME280;10218;42.874;25.320;2023-09-19T10:37:32;97278.47;;;32.49;33.30
20115;BME280;10218;42.874;25.320;2023-09-19T10:40:01;97279.03;;;30.99;32.97
20115;BME280;10218;42.874;25.320;2023-09-19T10:42:28;97270.00;;;32.82;34.82
20115;BME280;10218;42.874;25.320;2023-09-19T10:45:00;97277.28;;;32.28;33.87
20115;BME280;10218;42.874;25.320;2023-09-19T10:47:28;97262.53;;;31.32;35.07
20115;BME280;10218;42.874;25.320;2023-09-19T10:49:55;97271.66;;;31.46;33.84
20115;BME280;10218;42.874;25.320;2023-09-19T10:52:25;97285.53;;;30.29;36.29
20115;BME280;10218;42.874;25.320;2023-09-19T10:54:55;97273.09;;;30.92;36.18
20115;BME280;10218;42.874;25.320;2023-09-19T10:57:25;97275.62;;;31.40;35.14
20115;BME280;10218;42.874;25.320;2023-09-19T11:00:03;97272.16;;;32.08;34.54
20115;BME280;10218;42.874;25.320;2023-09-19T11:05:40;97261.09;;;32.85;33.41
20115;BME280;10218;42.874;25.320;2023-09-19T11:08:08;97254.84;;;32.16;35.87
20115;BME280;10218;42.874;25.320;2023-09-19T11:10:49;97253.59;;;33.74;32.78
20115;BME280;10218;42.874;25.320;2023-09-19T11:26:49;97232.16;;;33.13;34.39
20115;BME280;10218;42.874;25.320;2023-09-19T11:29:29;97238.34;;;34.42;36.06
20115;BME280;10218;42.874;25.320;2023-09-19T11:31:58;97231.19;;;34.02;32.19
20115;BME280;10218;42.874;25.320;2023-09-19T11:37:59;97232.03;;;35.19;30.54
20115;BME280;10218;42.874;25.320;2023-09-19T11:42:47;97222.72;;;32.70;31.91
20115;BME280;10218;42.874;25.320;2023-09-19T11:48:24;97220.31;;;35.60;30.04
20115;BME280;10218;42.874;25.320;2023-09-19T11:50:57;97216.16;;;35.02;28.79
20115;BME280;10218;42.874;25.320;2023-09-19T11:53:31;97210.09;;;35.35;30.03
20115;BME280;10218;42.874;25.320;2023-09-19T11:55:59;97214.91;;;35.64;29.53
20115;BME280;10218;42.874;25.320;2023-09-19T11:58:28;97209.50;;;34.69;30.19
20115;BME280;10218;42.874;25.320;2023-09-19T12:00:58;97207.59;;;35.50;27.87
20115;BME280;10218;42.874;25.320;2023-09-19T12:03:29;97193.88;;;32.84;31.76
20115;BME280;10218;42.874;25.320;2023-09-19T12:05:59;97196.94;;;33.05;31.15
20115;BME280;10218;42.874;25.320;2023-09-19T12:08:26;97191.75;;;33.12;31.96
20115;BME280;10218;42.874;25.320;2023-09-19T12:10:54;97194.69;;;31.12;33.95
20115;BME280;10218;42.874;25.320;2023-09-19T12:13:24;97183.91;;;31.98;34.09
20115;BME280;10218;42.874;25.320;2023-09-19T12:15:52;97196.59;;;30.04;37.22
20115;BME280;10218;42.874;25.320;2023-09-19T12:18:29;97186.28;;;31.91;35.18
20115;BME280;10218;42.874;25.320;2023-09-19T12:20:57;97189.25;;;30.88;36.38
20115;BME280;10218;42.874;25.320;2023-09-19T12:23:29;97184.09;;;33.09;31.74
20115;BME280;10218;42.874;25.320;2023-09-19T12:25:56;97183.03;;;34.97;30.06
20115;BME280;10218;42.874;25.320;2023-09-19T12:28:27;97180.44;;;31.51;31.52
20115;BME280;10218;42.874;25.320;2023-09-19T12:30:55;97190.34;;;31.38;33.03
20115;BME280;10218;42.874;25.320;2023-09-19T12:33:23;97187.41;;;32.17;31.64
20115;BME280;10218;42.874;25.320;2023-09-19T12:35:52;97197.53;;;33.77;31.16
20115;BME280;10218;42.874;25.320;2023-09-19T12:38:26;97189.53;;;33.76;30.75
20115;BME280;10218;42.874;25.320;2023-09-19T12:40:59;97190.97;;;32.89;31.15
20115;BME280;10218;42.874;25.320;2023-09-19T12:43:31;97185.75;;;32.30;32.46
20115;BME280;10218;42.874;25.320;2023-09-19T12:46:00;97203.53;;;33.71;31.23
20115;BME280;10218;42.874;25.320;2023-09-19T12:48:27;97193.03;;;33.06;32.25
20115;BME280;10218;42.874;25.320;2023-09-19T12:53:39;97183.81;;;35.06;30.84
20115;BME280;10218;42.874;25.320;2023-09-19T12:56:14;97192.62;;;32.18;32.17
20115;BME280;10218;42.874;25.320;2023-09-19T12:58:55;97190.69;;;34.66;32.52
20115;BME280;10218;42.874;25.320;2023-09-19T13:01:23;97190.50;;;30.82;33.96
20115;BME280;10218;42.874;25.320;2023-09-19T13:04:19;97185.50;;;31.30;33.85
20115;BME280;10218;42.874;25.320;2023-09-19T13:06:47;97187.16;;;32.27;32.37
20115;BME280;10218;42.874;25.320;2023-09-19T13:09:20;97184.12;;;31.88;32.35
20115;BME280;10218;42.874;25.320;2023-09-19T13:11:50;97185.12;;;33.75;32.73
20115;BME280;10218;42.874;25.320;2023-09-19T13:17:05;97181.16;;;34.15;29.06
20115;BME280;10218;42.874;25.320;2023-09-19T13:25:17;97170.03;;;33.98;29.99
20115;BME280;10218;42.874;25.320;2023-09-19T13:27:55;97177.41;;;32.43;31.64
20115;BME280;10218;42.874;25.320;2023-09-19T13:30:24;97171.97;;;33.89;29.83
20115;BME280;10218;42.874;25.320;2023-09-19T13:33:03;97168.00;;;34.81;29.62
20115;BME280;10218;42.874;25.320;2023-09-19T13:35:31;97171.19;;;33.97;28.86
20115;BME280;10218;42.874;25.320;2023-09-19T13:37:58;97165.19;;;35.24;28.15
20115;BME280;10218;42.874;25.320;2023-09-19T13:40:25;97178.00;;;36.22;26.89
20115;BME280;10218;42.874;25.320;2023-09-19T13:42:57;97164.09;;;36.42;26.54
20115;BME280;10218;42.874;25.320;2023-09-19T13:45:24;97164.81;;;36.81;27.63
20115;BME280;10218;42.874;25.320;2023-09-19T13:47:53;97168.19;;;33.15;29.70